Time;durP1;ratioP1;P1;durP2;ratioP2;P2;SDS_P1;SDS_P2;PMS_P1;PMS_P2;Temp;Humidity;BMP_temperature;BMP_pressure;BME280_temperature;BME280_humidity;BME280_pressure;Samples;Min_cycle;Max_cycle;Signal;HPM_P1;HPM_P2
2022/12/01 00:01:07;;;;;;;59.10;23.47;;;;;;;5.30;89.62;102244.50;5114669;28;20185;-68
2022/12/01 00:03:34;;;;;;;57.70;23.60;;;;;;;5.31;89.74;102246.25;5116341;28;20201;-69
2022/12/01 00:06:02;;;;;;;64.47;22.13;;;;;;;5.32;89.80;102245.34;5115856;28;20185;-69
2022/12/01 00:08:29;;;;;;;66.93;22.47;;;;;;;5.31;89.59;102248.91;5115986;28;20189;-69
2022/12/01 00:11:03;;;;;;;71.97;23.57;;;;;;;5.31;89.65;102243.59;5115734;28;20213;-69
2022/12/01 00:13:29;;;;;;;61.87;23.10;;;;;;;5.27;89.85;102236.63;5116101;28;20208;-69
2022/12/01 00:15:56;;;;;;;57.17;22.53;;;;;;;5.33;89.84;102241.78;5115531;28;20211;-69
2022/12/01 00:18:22;;;;;;;62.37;22.97;;;;;;;5.31;89.84;102241.78;5115544;28;20192;-69
2022/12/01 00:20:54;;;;;;;69.73;24.80;;;;;;;5.35;89.93;102234.63;5115689;28;20197;-69
2022/12/01 00:23:22;;;;;;;67.73;24.03;;;;;;;5.37;89.63;102242.56;5115901;28;20608;-69
2022/12/01 00:25:48;;;;;;;89.30;26.30;;;;;;;5.32;89.65;102235.59;5115676;28;20181;-69
2022/12/01 00:28:14;;;;;;;81.57;25.67;;;;;;;5.26;89.71;102230.41;5115654;28;20750;-69
2022/12/01 00:30:41;;;;;;;81.80;25.30;;;;;;;5.24;89.75;102231.38;5115871;28;20181;-69
2022/12/01 00:33:07;;;;;;;78.33;25.73;;;;;;;5.26;90.06;102229.56;5115245;28;20181;-69
2022/12/01 00:35:34;;;;;;;87.00;25.77;;;;;;;5.23;89.91;102233.16;5115639;28;20181;-69
2022/12/01 00:38:00;;;;;;;90.10;24.23;;;;;;;5.18;90.09;102234.19;5115216;28;20186;-69
2022/12/01 00:40:26;;;;;;;80.57;26.23;;;;;;;5.20;90.01;102235.03;5115102;28;20191;-69
2022/12/01 00:42:53;;;;;;;76.53;26.10;;;;;;;5.25;90.29;102241.09;5115325;28;20192;-69
2022/12/01 00:45:19;;;;;;;78.37;25.23;;;;;;;5.25;90.13;102238.44;5115211;28;20299;-69
2022/12/01 00:47:45;;;;;;;70.67;24.90;;;;;;;5.27;90.24;102233.97;5115214;28;20187;-69
2022/12/01 00:50:12;;;;;;;76.30;26.23;;;;;;;5.29;90.19;102242.75;5114932;28;20189;-68
2022/12/01 00:52:38;;;;;;;83.40;25.03;;;;;;;5.33;90.05;102234.66;5115030;28;20263;-68
2022/12/01 00:55:05;;;;;;;80.80;26.33;;;;;;;5.26;90.08;102243.69;5114993;28;20679;-69
2022/12/01 00:57:31;;;;;;;81.53;25.30;;;;;;;5.25;90.16;102235.78;5114880;28;20212;-69
2022/12/01 00:59:58;;;;;;;78.93;25.23;;;;;;;5.28;90.30;102233.06;5115235;28;20204;-69
2022/12/01 01:02:24;;;;;;;73.73;22.97;;;;;;;5.24;90.08;102240.25;5114687;28;20195;-69
2022/12/01 01:04:50;;;;;;;80.20;25.50;;;;;;;5.20;90.27;102237.69;5114611;28;20222;-69
2022/12/01 01:07:17;;;;;;;77.47;26.43;;;;;;;5.21;90.26;102240.28;5114803;28;20181;-69
2022/12/01 01:09:43;;;;;;;89.30;25.53;;;;;;;5.19;90.62;102243.91;5114527;28;20179;-69
2022/12/01 01:12:09;;;;;;;81.93;25.73;;;;;;;5.21;90.31;102245.59;5114707;28;20185;-69
2022/12/01 01:14:36;;;;;;;75.00;24.43;;;;;;;5.22;90.13;102250.03;5114660;28;20579;-69
2022/12/01 01:17:02;;;;;;;74.53;24.83;;;;;;;5.29;90.37;102243.66;5114601;28;20210;-69
2022/12/01 01:19:29;;;;;;;72.43;24.67;;;;;;;5.31;90.10;102247.09;5114364;28;20186;-69
2022/12/01 01:21:55;;;;;;;77.67;24.00;;;;;;;5.32;89.99;102253.31;5114286;28;20689;-69
2022/12/01 01:24:21;;;;;;;90.70;25.70;;;;;;;5.31;89.92;102254.22;5114478;28;20575;-69
2022/12/01 01:26:48;;;;;;;73.93;24.10;;;;;;;5.33;89.99;102255.06;5114239;28;20188;-69
2022/12/01 01:29:14;;;;;;;73.83;24.83;;;;;;;5.31;90.06;102259.53;5114198;28;20191;-69
2022/12/01 01:31:41;;;;;;;78.80;23.77;;;;;;;5.30;89.79;102258.66;5114446;28;20189;-69
2022/12/01 01:34:07;;;;;;;78.23;24.70;;;;;;;5.23;89.95;102262.38;5114317;28;20282;-69
2022/12/01 01:36:33;;;;;;;72.17;24.20;;;;;;;5.27;89.86;102260.53;5113986;28;20204;-69
2022/12/01 01:39:00;;;;;;;76.37;26.30;;;;;;;5.29;89.76;102258.69;5114072;28;20185;-69
2022/12/01 01:41:27;;;;;;;83.30;24.80;;;;;;;5.27;90.18;102258.75;5114798;28;20277;-69
2022/12/01 01:44:02;;;;;;;70.87;23.03;;;;;;;5.31;89.85;102262.19;5113900;28;20211;-70
2022/12/01 01:46:31;;;;;;;74.93;24.60;;;;;;;5.28;89.65;102264.91;5114299;28;20252;-69
2022/12/01 01:49:02;;;;;;;72.07;24.47;;;;;;;5.27;89.89;102268.50;5114230;28;20277;-69
2022/12/01 01:51:34;;;;;;;82.67;24.63;;;;;;;5.30;89.70;102273.72;5114491;28;20628;-69
2022/12/01 01:54:08;;;;;;;77.23;24.67;;;;;;;5.35;89.90;102276.28;5113825;28;20209;-69
2022/12/01 01:56:36;;;;;;;71.67;23.47;;;;;;;5.41;89.58;102274.34;5114574;28;20197;-69
2022/12/01 01:59:03;;;;;;;69.77;22.90;;;;;;;5.35;89.23;102276.28;5114347;28;20631;-69
2022/12/01 02:01:30;;;;;;;62.67;21.80;;;;;;;5.30;89.30;102271.06;5114316;28;20196;-69
2022/12/01 02:03:57;;;;;;;63.17;22.70;;;;;;;5.26;89.39;102277.38;5113650;28;20205;-69
2022/12/01 02:06:23;;;;;;;58.90;21.27;;;;;;;5.25;89.65;102268.53;5113715;28;20181;-69
2022/12/01 02:08:50;;;;;;;57.30;22.47;;;;;;;5.24;89.55;102272.09;5113683;28;20189;-68
2022/12/01 02:11:32;;;;;;;56.37;19.90;;;;;;;5.26;89.52;102267.59;5114234;28;20188;-68
2022/12/01 02:14:01;;;;;;;57.90;22.10;;;;;;;5.35;89.46;102269.16;5113642;28;20734;-69
2022/12/01 02:16:59;;;;;;;62.37;22.47;;;;;;;5.36;89.36;102275.34;5113777;28;20238;-69
2022/12/01 02:20:07;;;;;;;51.30;20.27;;;;;;;5.31;89.37;102267.50;5113955;28;20177;-69
2022/12/01 02:23:17;;;;;;;63.97;22.50;;;;;;;5.35;89.19;102269.16;5113849;28;20176;-69
2022/12/01 02:26:14;;;;;;;65.27;22.57;;;;;;;5.29;89.41;102266.66;5117789;28;20252;-69
2022/12/01 02:28:50;;;;;;;58.83;22.03;;;;;;;5.33;89.45;102276.31;5118028;28;20180;-69
2022/12/01 02:31:23;;;;;;;62.83;20.50;;;;;;;5.29;88.87;102271.97;5118223;28;20189;-69
2022/12/01 02:33:55;;;;;;;59.53;21.80;;;;;;;5.36;89.03;102264.72;5117779;28;20617;-69
2022/12/01 02:36:30;;;;;;;63.67;22.00;;;;;;;5.28;89.03;102264.91;5118035;28;20200;-69
2022/12/01 02:38:59;;;;;;;63.10;22.40;;;;;;;5.28;89.04;102259.63;5117795;28;20173;-69
2022/12/01 02:41:36;;;;;;;64.47;20.80;;;;;;;5.29;88.87;102266.66;5117662;28;20647;-69
2022/12/01 02:44:10;;;;;;;65.77;22.00;;;;;;;5.29;89.26;102261.34;5117518;28;20203;-69
2022/12/01 02:47:04;;;;;;;48.90;19.07;;;;;;;5.29;88.85;102256.94;5117933;28;20253;-69
2022/12/01 02:49:35;;;;;;;56.40;22.30;;;;;;;5.33;88.53;102260.38;5117568;28;20190;-69
2022/12/01 02:52:05;;;;;;;54.97;19.53;;;;;;;5.31;88.77;102260.38;5117562;28;20173;-69
2022/12/01 02:54:32;;;;;;;54.20;19.67;;;;;;;5.26;88.52;102250.81;5117294;28;20205;-69
2022/12/01 02:56:59;;;;;;;52.07;21.00;;;;;;;5.28;88.42;102262.25;5117098;28;20205;-69
2022/12/01 02:59:25;;;;;;;53.10;20.27;;;;;;;5.20;88.34;102254.50;5117346;28;20182;-69
2022/12/01 03:01:58;;;;;;;47.10;19.40;;;;;;;5.27;88.42;102260.53;5117095;28;20188;-69
2022/12/01 03:04:34;;;;;;;49.53;20.20;;;;;;;5.26;88.28;102264.94;5117516;28;20659;-69
2022/12/01 03:07:31;;;;;;;41.67;18.87;;;;;;;5.30;88.33;102261.31;5117289;28;20165;-69
2022/12/01 03:10:23;;;;;;;45.13;18.40;;;;;;;5.28;88.21;102263.13;5116919;28;20173;-69
2022/12/01 03:12:59;;;;;;;45.27;19.47;;;;;;;5.31;88.15;102268.34;5117428;28;20184;-69
2022/12/01 03:15:53;;;;;;;50.10;20.17;;;;;;;5.30;87.82;102268.41;5117093;28;20256;-69
2022/12/01 03:18:25;;;;;;;52.77;20.87;;;;;;;5.28;87.95;102270.22;5116886;28;20205;-69
2022/12/01 03:21:31;;;;;;;48.33;20.73;;;;;;;5.27;87.60;102258.75;5116558;28;20188;-69
2022/12/01 03:24:02;;;;;;;52.77;19.33;;;;;;;5.26;88.04;102262.28;5116565;28;20296;-69
2022/12/01 03:26:31;;;;;;;62.00;21.37;;;;;;;5.26;88.03;102270.25;5117158;28;20254;-69
2022/12/01 03:29:04;;;;;;;49.77;19.67;;;;;;;5.22;88.34;102260.66;5117073;28;20273;-69
2022/12/01 03:31:36;;;;;;;50.87;19.73;;;;;;;5.34;87.98;102259.47;5117069;28;20540;-69
2022/12/01 03:34:08;;;;;;;54.27;19.47;;;;;;;5.33;87.89;102269.19;5116312;28;20613;-69
2022/12/01 03:36:41;;;;;;;48.47;19.83;;;;;;;5.31;88.01;102260.38;5116594;28;20181;-69
2022/12/01 03:39:14;;;;;;;49.97;20.87;;;;;;;5.30;87.88;102261.31;5116683;28;20169;-69
2022/12/01 03:41:47;;;;;;;57.73;20.10;;;;;;;5.28;87.87;102260.47;5116624;28;20181;-69
2022/12/01 03:44:19;;;;;;;56.47;21.57;;;;;;;5.27;87.83;102263.19;5116763;28;20238;-69
2022/12/01 03:47:16;;;;;;;55.60;20.00;;;;;;;5.27;88.00;102266.72;5116247;28;20563;-69
2022/12/01 03:49:44;;;;;;;55.00;20.83;;;;;;;5.28;88.06;102272.88;5116461;28;20185;-69
2022/12/01 03:52:24;;;;;;;61.37;20.97;;;;;;;5.35;88.19;102274.47;5116092;28;20185;-69
2022/12/01 03:55:09;;;;;;;63.37;20.27;;;;;;;5.32;88.16;102277.22;5116053;28;20208;-69
2022/12/01 03:57:44;;;;;;;54.03;20.10;;;;;;;5.28;88.08;102276.41;5116214;28;20199;-69
2022/12/01 04:00:13;;;;;;;60.37;22.33;;;;;;;5.31;88.19;102272.81;5116237;28;20637;-69
2022/12/01 04:02:40;;;;;;;50.10;20.90;;;;;;;5.31;88.13;102273.66;5116198;28;20574;-69
2022/12/01 04:05:10;;;;;;;57.67;20.40;;;;;;;5.31;87.90;102271.00;5115756;28;20205;-69
2022/12/01 04:07:38;;;;;;;62.43;21.33;;;;;;;5.33;87.73;102274.50;5116099;28;20165;-69
2022/12/01 04:10:05;;;;;;;52.47;21.60;;;;;;;5.35;87.73;102277.13;5115755;28;20553;-69
2022/12/01 04:12:32;;;;;;;51.83;20.83;;;;;;;5.34;87.73;102272.75;5115994;28;20265;-69
2022/12/01 04:15:01;;;;;;;53.03;21.43;;;;;;;5.35;88.07;102276.28;5115597;28;20212;-69
2022/12/01 04:17:27;;;;;;;63.67;22.97;;;;;;;5.33;87.56;102266.53;5115491;28;20293;-69
2022/12/01 04:19:54;;;;;;;50.87;22.27;;;;;;;5.36;87.63;102267.38;5115589;28;20199;-69
2022/12/01 04:22:22;;;;;;;51.60;20.20;;;;;;;5.38;87.77;102269.09;5115386;28;20691;-69
2022/12/01 04:24:48;;;;;;;50.63;20.40;;;;;;;5.33;87.51;102269.19;5115349;28;20573;-69
2022/12/01 04:27:15;;;;;;;62.23;21.13;;;;;;;5.34;87.80;102270.09;5115953;28;20177;-69
2022/12/01 04:29:41;;;;;;;50.97;20.00;;;;;;;5.38;87.78;102270.88;5115635;28;20176;-69
2022/12/01 04:32:08;;;;;;;49.93;20.30;;;;;;;5.35;87.53;102269.16;5115304;28;20191;-69
2022/12/01 04:34:34;;;;;;;51.77;20.07;;;;;;;5.40;87.34;102271.72;5115976;28;20213;-69
2022/12/01 04:37:00;;;;;;;48.60;19.13;;;;;;;5.37;87.20;102262.03;5115112;28;20547;-69
2022/12/01 04:39:27;;;;;;;48.43;21.23;;;;;;;5.43;87.35;102269.84;5115152;28;20273;-69
2022/12/01 04:41:53;;;;;;;47.67;19.77;;;;;;;5.36;87.23;102262.94;5115704;28;20192;-69
2022/12/01 04:44:19;;;;;;;57.57;21.50;;;;;;;5.43;87.21;102269.84;5115008;28;20687;-69
2022/12/01 04:46:46;;;;;;;56.43;20.40;;;;;;;5.39;86.80;102254.91;5114529;28;20182;-69
2022/12/01 04:49:13;;;;;;;46.27;21.30;;;;;;;5.40;87.26;102271.72;5114957;28;20240;-69
2022/12/01 04:51:39;;;;;;;54.57;21.57;;;;;;;5.40;87.10;102267.28;5114924;28;20686;-69
2022/12/01 04:54:05;;;;;;;59.93;20.73;;;;;;;5.38;87.37;102271.75;5114803;28;20211;-69
2022/12/01 04:56:32;;;;;;;50.60;20.43;;;;;;;5.38;87.32;102271.75;5115036;28;20190;-69
2022/12/01 04:58:59;;;;;;;51.27;22.60;;;;;;;5.44;87.28;102270.72;5114948;28;20288;-69
2022/12/01 05:01:25;;;;;;;60.43;21.37;;;;;;;5.48;86.88;102267.97;5115205;28;20182;-69
2022/12/01 05:03:52;;;;;;;57.60;22.13;;;;;;;5.41;86.92;102262.81;5114924;28;20213;-69
2022/12/01 05:06:22;;;;;;;54.37;21.37;;;;;;;5.40;87.14;102263.75;5114634;28;20185;-69
2022/12/01 05:08:49;;;;;;;50.30;20.23;;;;;;;5.38;87.18;102263.78;5114833;28;20685;-69
2022/12/01 05:11:17;;;;;;;51.03;20.00;;;;;;;5.34;87.29;102262.13;5114549;28;20188;-69
2022/12/01 05:13:45;;;;;;;48.20;20.53;;;;;;;5.37;87.31;102255.88;5115214;28;20205;-69
2022/12/01 05:16:13;;;;;;;48.00;19.53;;;;;;;5.34;87.18;102259.47;5114459;28;20187;-69
2022/12/01 05:18:40;;;;;;;56.50;20.77;;;;;;;5.31;87.43;102260.38;5114801;28;20698;-69
2022/12/01 05:21:09;;;;;;;42.97;19.73;;;;;;;5.37;87.23;102264.69;5114375;28;20254;-69
2022/12/01 05:23:37;;;;;;;47.77;18.27;;;;;;;5.28;87.15;102267.56;5114479;28;20201;-69
2022/12/01 05:26:06;;;;;;;35.37;18.60;;;;;;;5.26;86.84;102267.59;5114520;28;20520;-69
2022/12/01 05:28:32;;;;;;;43.07;18.67;;;;;;;5.33;87.01;102263.03;5114761;28;20181;-69
2022/12/01 05:30:59;;;;;;;38.70;17.73;;;;;;;5.32;86.57;102264.81;5114750;28;20189;-69
2022/12/01 05:33:27;;;;;;;44.03;19.23;;;;;;;5.30;86.62;102266.63;5114324;28;20763;-69
2022/12/01 05:35:53;;;;;;;41.57;19.80;;;;;;;5.33;86.51;102269.19;5114669;28;20184;-69
2022/12/01 05:38:20;;;;;;;50.57;19.73;;;;;;;5.37;86.28;102282.44;5114093;28;20213;-69
2022/12/01 05:40:54;;;;;;;43.57;18.13;;;;;;;5.35;86.31;102266.50;5114586;28;20185;-69
2022/12/01 05:43:22;;;;;;;47.70;20.13;;;;;;;5.30;86.45;102274.59;5114215;28;20223;-69
2022/12/01 05:45:56;;;;;;;49.63;18.80;;;;;;;5.28;86.59;102267.56;5114258;28;20177;-69
2022/12/01 05:48:22;;;;;;;46.47;19.03;;;;;;;5.28;86.46;102271.09;5114239;28;20187;-69
2022/12/01 05:50:49;;;;;;;63.63;19.97;;;;;;;5.28;86.55;102276.41;5114181;28;20190;-69
2022/12/01 05:53:16;;;;;;;48.97;20.67;;;;;;;5.28;86.42;102280.84;5114096;28;20186;-69
2022/12/01 05:55:42;;;;;;;47.70;19.80;;;;;;;5.39;85.81;102273.50;5113823;28;20181;-69
2022/12/01 05:58:09;;;;;;;50.70;19.80;;;;;;;5.33;86.14;102274.50;5095523;28;20223;-69
2022/12/01 06:00:37;;;;;;;54.40;19.50;;;;;;;5.25;86.00;102278.28;5113721;28;20191;-69
2022/12/01 06:03:11;;;;;;;47.07;18.47;;;;;;;5.31;85.91;102289.59;5114229;28;20176;-69
2022/12/01 06:05:38;;;;;;;47.47;19.80;;;;;;;5.32;85.91;102287.84;5113978;28;20268;-69
2022/12/01 06:08:05;;;;;;;53.40;20.10;;;;;;;5.29;85.88;102285.25;5113700;28;20185;-69
2022/12/01 06:10:31;;;;;;;56.30;21.87;;;;;;;5.28;85.82;102286.16;5113896;28;20188;-69
2022/12/01 06:12:57;;;;;;;46.87;20.33;;;;;;;5.25;86.12;102286.25;5095385;28;20193;-69
2022/12/01 06:15:25;;;;;;;44.43;18.70;;;;;;;5.26;86.09;102282.69;5113857;28;20196;-69
2022/12/01 06:17:52;;;;;;;46.67;19.93;;;;;;;5.28;86.12;102288.81;5113527;28;20240;-69
2022/12/01 06:20:18;;;;;;;50.83;22.67;;;;;;;5.19;86.32;102287.25;5114062;28;20183;-69
2022/12/01 06:22:44;;;;;;;53.03;20.13;;;;;;;5.22;86.37;102292.50;5113836;28;20166;-69
2022/12/01 06:25:11;;;;;;;55.77;21.43;;;;;;;5.26;86.22;102288.84;5113711;28;20570;-69
2022/12/01 06:27:37;;;;;;;58.60;20.17;;;;;;;5.27;86.51;102292.41;5113761;28;20182;-69
2022/12/01 06:30:04;;;;;;;55.80;22.00;;;;;;;5.32;86.35;102295.81;5113725;28;20659;-69
2022/12/01 06:32:30;;;;;;;58.03;22.27;;;;;;;5.28;86.39;102292.34;5113770;28;20177;-69
2022/12/01 06:34:57;;;;;;;56.67;21.93;;;;;;;5.28;86.47;102295.00;5113608;28;20201;-69
2022/12/01 06:37:23;;;;;;;57.80;21.17;;;;;;;5.26;86.63;102298.63;5113341;28;20213;-69
2022/12/01 06:39:50;;;;;;;62.53;21.50;;;;;;;5.27;86.65;102295.06;5113381;28;20193;-69
2022/12/01 06:42:16;;;;;;;57.40;21.83;;;;;;;5.22;86.77;102300.50;5113400;28;20181;-69
2022/12/01 06:44:43;;;;;;;60.83;22.30;;;;;;;5.25;86.80;102296.88;5113313;28;20208;-69
2022/12/01 06:47:09;;;;;;;53.10;21.37;;;;;;;5.30;86.86;102298.50;5113297;28;20186;-69
2022/12/01 06:49:36;;;;;;;54.73;22.07;;;;;;;5.32;86.65;102302.00;5113205;28;20191;-69
2022/12/01 06:52:04;;;;;;;67.97;21.60;;;;;;;5.25;86.90;102308.38;5113437;28;20647;-69
2022/12/01 06:54:30;;;;;;;61.17;22.03;;;;;;;5.33;86.46;102301.06;5113219;28;20201;-69
2022/12/01 06:56:57;;;;;;;51.63;21.40;;;;;;;5.29;86.39;102301.19;5113320;28;20214;-69
2022/12/01 06:59:24;;;;;;;61.60;22.73;;;;;;;5.29;86.69;102301.19;5113640;28;20254;-69
2022/12/01 07:01:51;;;;;;;63.43;21.27;;;;;;;5.29;86.63;102296.78;5113421;28;20242;-69
2022/12/01 07:04:17;;;;;;;62.27;23.17;;;;;;;5.27;86.81;102303.91;5113193;28;20610;-69
2022/12/01 07:06:44;;;;;;;57.93;22.23;;;;;;;5.27;86.66;102295.94;5113131;28;20189;-69
2022/12/01 07:09:10;;;;;;;49.53;21.83;;;;;;;5.30;86.77;102300.28;5113694;28;20177;-69
2022/12/01 07:11:37;;;;;;;59.17;22.10;;;;;;;5.26;86.49;102306.56;5116852;28;20196;-69
2022/12/01 07:14:03;;;;;;;59.47;23.50;;;;;;;5.19;86.73;102303.19;5116998;28;20299;-69
2022/12/01 07:16:30;;;;;;;55.47;22.53;;;;;;;5.25;86.28;102308.38;5116739;28;20185;-69
2022/12/01 07:18:58;;;;;;;51.43;21.47;;;;;;;5.23;86.51;102312.84;5116931;28;20216;-69
2022/12/01 07:21:25;;;;;;;56.27;23.17;;;;;;;5.24;86.55;102311.94;5116757;28;20197;-69
2022/12/01 07:23:51;;;;;;;60.30;22.90;;;;;;;5.20;86.72;102315.59;5116525;28;20201;-68
2022/12/01 07:26:17;;;;;;;60.23;23.77;;;;;;;5.20;86.68;102323.53;5116630;28;20185;-68
2022/12/01 07:28:44;;;;;;;65.67;23.77;;;;;;;5.21;86.34;102327.06;5116570;28;20233;-68
2022/12/01 07:31:17;;;;;;;66.97;24.77;;;;;;;5.21;86.08;102321.75;5116510;28;20655;-68
2022/12/01 07:33:44;;;;;;;51.73;22.63;;;;;;;5.26;86.48;102319.88;5116605;28;20228;-69
2022/12/01 07:36:12;;;;;;;51.97;21.83;;;;;;;5.26;86.45;102323.38;5116426;28;20205;-68
2022/12/01 07:38:39;;;;;;;63.70;23.97;;;;;;;5.33;86.28;102316.16;5116495;28;20229;-68
2022/12/01 07:41:07;;;;;;;61.63;22.73;;;;;;;5.34;85.89;102328.53;5116528;28;20191;-68
2022/12/01 07:43:33;;;;;;;62.67;23.33;;;;;;;5.30;86.11;102322.41;5116457;28;20343;-69
2022/12/01 07:46:14;;;;;;;58.67;24.20;;;;;;;5.27;85.88;102322.50;5116462;28;20181;-69
2022/12/01 07:48:48;;;;;;;65.53;24.20;;;;;;;5.25;85.82;102315.47;5116421;28;20240;-69
2022/12/01 07:51:15;;;;;;;59.90;22.73;;;;;;;5.18;86.50;102313.88;5116111;28;20226;-69
2022/12/01 07:53:44;;;;;;;74.50;25.80;;;;;;;5.22;86.13;102320.84;5116028;28;20624;-69
2022/12/01 07:56:10;;;;;;;69.80;24.10;;;;;;;5.18;86.40;102321.84;5116310;28;20195;-69
2022/12/01 07:58:37;;;;;;;65.03;24.20;;;;;;;5.19;86.61;102320.91;5116300;28;20211;-69
2022/12/01 08:01:14;;;;;;;62.90;23.70;;;;;;;5.24;86.44;102329.66;5115906;28;20190;-69
2022/12/01 08:03:41;;;;;;;60.10;23.77;;;;;;;5.23;86.15;102325.25;5116136;28;20258;-69
2022/12/01 08:06:08;;;;;;;55.30;22.33;;;;;;;5.20;86.60;102331.50;5116056;28;20191;-69
2022/12/01 08:08:37;;;;;;;57.97;22.23;;;;;;;5.17;86.62;102326.28;5115989;28;20177;-69
2022/12/01 08:11:12;;;;;;;65.17;21.60;;;;;;;5.20;86.38;102330.66;5115918;28;20199;-69
2022/12/01 08:13:39;;;;;;;56.67;20.17;;;;;;;5.25;86.37;102326.09;5115821;28;20216;-69
2022/12/01 08:16:08;;;;;;;56.20;19.70;;;;;;;5.22;86.79;102331.47;5115863;28;20200;-68
2022/12/01 08:18:36;;;;;;;52.90;21.00;;;;;;;5.19;86.74;102329.75;5116006;28;20218;-68
2022/12/01 08:21:04;;;;;;;48.97;19.50;;;;;;;5.25;86.51;102336.72;5114428;28;20200;-68
2022/12/01 08:23:31;;;;;;;60.57;20.33;;;;;;;5.25;86.86;102342.03;5115345;28;20201;-69
2022/12/01 08:26:06;;;;;;;43.37;19.43;;;;;;;5.24;86.60;102341.16;5115457;28;20185;-69
2022/12/01 08:28:36;;;;;;;38.87;19.13;;;;;;;5.26;86.39;102341.09;5115364;28;20183;-69
2022/12/01 08:31:08;;;;;;;41.07;18.93;;;;;;;5.28;86.09;102345.47;5115878;28;20191;-69
2022/12/01 08:33:34;;;;;;;43.53;18.80;;;;;;;5.28;86.19;102347.25;5115181;28;20299;-69
2022/12/01 08:36:02;;;;;;;35.13;18.33;;;;;;;5.34;85.88;102352.44;5115555;28;20174;-69
2022/12/01 08:38:29;;;;;;;39.33;18.00;;;;;;;5.31;85.75;102357.81;5115638;28;20212;-68
2022/12/01 08:41:03;;;;;;;39.60;18.57;;;;;;;5.28;85.69;102345.47;5115382;28;20181;-68
2022/12/01 08:43:29;;;;;;;43.37;18.83;;;;;;;5.28;85.65;102355.22;5115353;28;20207;-69
2022/12/01 08:46:15;;;;;;;51.47;18.87;;;;;;;5.29;85.26;102359.63;5114780;28;20192;-69
2022/12/01 08:48:42;;;;;;;49.73;20.10;;;;;;;5.26;84.93;102357.03;5115247;28;20313;-69
2022/12/01 08:51:09;;;;;;;45.53;20.93;;;;;;;5.24;85.44;102361.50;5114928;28;20185;-68
2022/12/01 08:53:39;;;;;;;53.87;20.27;;;;;;;5.26;85.28;102359.69;5114915;28;20311;-69
2022/12/01 08:56:21;;;;;;;53.63;20.87;;;;;;;5.27;85.28;102361.47;5115435;28;20184;-69
2022/12/01 08:58:49;;;;;;;49.50;19.93;;;;;;;5.26;85.66;102357.03;5114990;28;20201;-69
2022/12/01 09:01:16;;;;;;;47.17;20.57;;;;;;;5.22;85.66;102358.91;5114732;28;20185;-68
2022/12/01 09:03:43;;;;;;;50.33;20.63;;;;;;;5.26;85.55;102363.22;5114630;28;20250;-68
2022/12/01 09:06:13;;;;;;;46.63;20.53;;;;;;;5.22;85.57;102355.34;5114564;28;20189;-68
2022/12/01 09:08:40;;;;;;;51.40;20.80;;;;;;;5.16;85.84;102351.06;5114902;28;20183;-68
2022/12/01 09:11:10;;;;;;;53.17;21.40;;;;;;;5.10;85.98;102362.72;5114587;28;20182;-68
2022/12/01 09:13:38;;;;;;;48.23;20.47;;;;;;;5.11;86.14;102361.81;5114655;28;20209;-69
2022/12/01 09:16:09;;;;;;;58.23;22.53;;;;;;;5.18;86.27;102361.69;5115042;28;20204;-69
2022/12/01 09:18:35;;;;;;;56.83;22.17;;;;;;;5.22;86.26;102360.66;5114921;28;20205;-69
2022/12/01 09:21:29;;;;;;;51.53;20.33;;;;;;;5.23;86.08;102365.09;5114198;28;20197;-69
2022/12/01 09:23:56;;;;;;;50.57;23.00;;;;;;;5.12;86.64;102370.63;5111121;28;20326;-68
2022/12/01 09:26:23;;;;;;;59.27;22.97;;;;;;;5.09;86.82;102368.06;5114332;28;20179;-68
2022/12/01 09:28:53;;;;;;;52.10;21.57;;;;;;;5.14;86.96;102366.16;5114250;28;20554;-69
2022/12/01 09:31:22;;;;;;;52.53;21.20;;;;;;;5.13;87.19;102375.06;5114220;28;20193;-68
2022/12/01 09:33:54;;;;;;;57.13;24.10;;;;;;;5.13;87.29;102371.53;5114231;28;20690;-69
2022/12/01 09:36:20;;;;;;;58.83;22.87;;;;;;;5.17;86.67;102370.53;5114174;28;20169;-69
2022/12/01 09:38:47;;;;;;;51.47;20.87;;;;;;;5.21;86.68;102380.19;5114048;28;20211;-69
2022/12/01 09:41:20;;;;;;;60.37;22.37;;;;;;;5.20;87.21;102378.47;5114275;28;20643;-68
2022/12/01 09:43:57;;;;;;;51.50;21.50;;;;;;;5.24;86.79;102382.75;5113943;28;20211;-69
2022/12/01 09:46:29;;;;;;;57.90;22.30;;;;;;;5.21;86.74;102377.53;5114617;28;20173;-69
2022/12/01 09:48:59;;;;;;;52.73;21.53;;;;;;;5.22;86.82;102373.94;5114528;28;20666;-69
2022/12/01 09:51:27;;;;;;;50.93;21.87;;;;;;;5.30;86.49;102377.31;5113843;28;20188;-69
2022/12/01 09:53:57;;;;;;;48.57;22.03;;;;;;;5.19;86.93;102372.25;5114137;28;20197;-69
2022/12/01 09:56:38;;;;;;;48.93;21.57;;;;;;;5.16;86.49;102377.63;5114054;28;20181;-68
2022/12/01 09:59:07;;;;;;;43.83;19.17;;;;;;;5.08;86.37;102369.84;5113762;28;20369;-68
2022/12/01 10:01:37;;;;;;;45.30;19.77;;;;;;;5.10;87.00;102368.03;5113731;28;20194;-68
2022/12/01 10:04:16;;;;;;;51.23;20.03;;;;;;;5.10;86.95;102364.50;5114163;28;20574;-69
2022/12/01 10:06:50;;;;;;;44.53;20.33;;;;;;;5.05;86.93;102371.69;5114232;28;20173;-69
2022/12/01 10:09:23;;;;;;;42.80;19.00;;;;;;;5.14;86.75;102365.31;5113926;28;20166;-69
2022/12/01 10:11:53;;;;;;;39.83;19.17;;;;;;;5.15;86.74;102367.03;5113977;28;20269;-69
2022/12/01 10:14:20;;;;;;;53.53;20.93;;;;;;;5.15;86.67;102367.94;5113890;28;20227;-69
2022/12/01 10:17:05;;;;;;;51.63;19.90;;;;;;;5.12;86.61;102362.66;5113667;28;20181;-69
2022/12/01 10:19:43;;;;;;;45.80;19.87;;;;;;;5.16;86.35;102363.50;5113817;28;20652;-69
2022/12/01 10:22:20;;;;;;;41.80;20.23;;;;;;;5.11;86.16;102363.59;5113543;28;20198;-69
2022/12/01 10:25:00;;;;;;;48.83;21.67;;;;;;;5.10;86.46;102353.88;5113496;28;20221;-69
2022/12/01 10:27:33;;;;;;;51.57;22.17;;;;;;;5.06;85.96;102354.84;5113783;28;20177;-69
2022/12/01 10:30:17;;;;;;;58.90;24.23;;;;;;;5.05;85.69;102361.97;5114306;28;20182;-69
2022/12/01 10:32:47;;;;;;;52.87;22.27;;;;;;;5.06;85.77;102355.72;5113489;28;20231;-69
2022/12/01 10:35:19;;;;;;;45.33;23.40;;;;;;;5.16;84.95;102347.56;5113496;28;20209;-68
2022/12/01 10:37:48;;;;;;;48.73;23.37;;;;;;;5.16;85.16;102353.72;5114011;28;20177;-68
2022/12/01 10:40:16;;;;;;;64.50;23.73;;;;;;;5.15;85.47;102349.34;5113309;28;20226;-68
2022/12/01 10:42:45;;;;;;;51.40;24.83;;;;;;;5.25;84.55;102345.56;5114492;28;20193;-68
2022/12/01 10:45:17;;;;;;;52.37;22.40;;;;;;;5.13;84.71;102340.53;5115610;28;20570;-69
2022/12/01 10:48:07;;;;;;;49.50;24.03;;;;;;;5.21;84.08;102348.31;5118197;28;20175;-69
2022/12/01 10:50:34;;;;;;;59.43;23.80;;;;;;;5.25;83.52;102345.56;5117378;28;20177;-69
2022/12/01 10:53:01;;;;;;;44.97;24.03;;;;;;;5.23;83.46;102341.19;5117136;28;20192;-69
2022/12/01 10:55:38;;;;;;;49.93;23.93;;;;;;;5.33;83.10;102343.56;5117220;28;20181;-69
2022/12/01 10:58:15;;;;;;;51.33;23.27;;;;;;;5.43;82.57;102341.56;5117690;28;20166;-69
2022/12/01 11:00:45;;;;;;;56.00;25.03;;;;;;;5.49;82.16;102341.44;5117373;28;20673;-69
2022/12/01 11:03:33;;;;;;;54.83;27.03;;;;;;;5.58;82.28;102334.13;5117049;28;20269;-69
2022/12/01 11:06:02;;;;;;;51.43;26.20;;;;;;;5.61;81.66;102326.97;5117253;28;20280;-69
2022/12/01 11:08:52;;;;;;;47.97;24.10;;;;;;;5.69;81.11;102338.28;5117034;28;20200;-69
2022/12/01 11:11:39;;;;;;;54.20;25.43;;;;;;;5.72;80.18;102332.91;5116976;28;20235;-69
2022/12/01 11:14:17;;;;;;;52.87;25.63;;;;;;;5.70;80.12;102336.50;5117055;28;20299;-69
2022/12/01 11:16:46;;;;;;;48.80;25.70;;;;;;;5.78;79.72;102339.84;5117291;28;20630;-69
2022/12/01 11:19:12;;;;;;;54.07;25.40;;;;;;;5.70;79.83;102336.50;5098497;28;20204;-69
2022/12/01 11:21:51;;;;;;;55.80;25.47;;;;;;;5.77;80.08;102343.41;5116891;28;20283;-69
2022/12/01 11:24:28;;;;;;;54.87;25.43;;;;;;;5.70;80.37;102336.50;5116749;28;20568;-69
2022/12/01 11:26:57;;;;;;;64.53;26.47;;;;;;;5.73;79.26;102331.97;5116907;28;20189;-69
2022/12/01 11:29:31;;;;;;;53.13;25.67;;;;;;;5.73;79.38;102329.31;5117056;28;20268;-68
2022/12/01 11:32:00;;;;;;;62.97;27.80;;;;;;;5.77;79.18;102340.75;5117114;28;20184;-68